sensor_id;sensor_type;location;lat;lon;timestamp;pressure;altitude;pressure_sealevel;temperature;humidity
13968;BME280;39536;52.198;9.920;2023-05-11T00:00:49;100487.72;;;14.40;100.00
13968;BME280;39536;52.198;9.920;2023-05-11T00:03:15;100490.63;;;14.33;100.00
13968;BME280;39536;52.198;9.920;2023-05-11T00:05:46;100492.78;;;14.25;100.00
13968;BME280;39536;52.198;9.920;2023-05-11T00:08:14;100489.09;;;14.10;100.00
13968;BME280;39536;52.198;9.920;2023-05-11T00:10:41;100493.66;;;14.07;100.00
13968;BME280;39536;52.198;9.920;2023-05-11T00:13:07;100486.63;;;14.07;100.00
13968;BME280;39536;52.198;9.920;2023-05-11T00:15:34;100496.81;;;14.14;100.00
13968;BME280;39536;52.198;9.920;2023-05-11T00:18:00;100487.91;;;14.18;100.00
13968;BME280;39536;52.198;9.920;2023-05-11T00:20:26;100497.16;;;14.25;100.00
13968;BME280;39536;52.198;9.920;2023-05-11T00:22:53;100500.63;;;14.25;100.00
13968;BME280;39536;52.198;9.920;2023-05-11T00:25:21;100489.94;;;14.30;100.00
13968;BME280;39536;52.198;9.920;2023-05-11T00:27:47;100495.56;;;14.40;100.00
13968;BME280;39536;52.198;9.920;2023-05-11T00:30:14;100499.41;;;14.32;100.00
13968;BME280;39536;52.198;9.920;2023-05-11T00:32:40;100497.56;;;14.35;100.00
13968;BME280;39536;52.198;9.920;2023-05-11T00:35:08;100491.94;;;14.42;100.00
13968;BME280;39536;52.198;9.920;2023-05-11T00:37:35;100498.66;;;14.48;100.00
13968;BME280;39536;52.198;9.920;2023-05-11T00:40:01;100497.53;;;14.53;100.00
13968;BME280;39536;52.198;9.920;2023-05-11T00:42:29;100497.38;;;14.57;100.00
13968;BME280;39536;52.198;9.920;2023-05-11T00:44:56;100498.00;;;14.62;100.00
13968;BME280;39536;52.198;9.920;2023-05-11T00:47:22;100500.25;;;14.69;100.00
13968;BME280;39536;52.198;9.920;2023-05-11T00:49:51;100496.63;;;14.72;100.00
13968;BME280;39536;52.198;9.920;2023-05-11T00:52:18;100497.25;;;14.77;100.00
13968;BME280;39536;52.198;9.920;2023-05-11T00:54:44;100500.63;;;14.79;100.00
13968;BME280;39536;52.198;9.920;2023-05-11T00:57:11;100493.00;;;14.74;100.00
13968;BME280;39536;52.198;9.920;2023-05-11T00:59:40;100488.44;;;14.78;100.00
13968;BME280;39536;52.198;9.920;2023-05-11T01:02:06;100495.38;;;14.79;100.00
13968;BME280;39536;52.198;9.920;2023-05-11T01:04:33;100493.63;;;14.62;100.00
13968;BME280;39536;52.198;9.920;2023-05-11T01:07:04;100491.00;;;14.62;100.00
13968;BME280;39536;52.198;9.920;2023-05-11T01:09:40;100490.91;;;14.64;100.00
13968;BME280;39536;52.198;9.920;2023-05-11T01:12:14;100497.31;;;14.58;100.00
13968;BME280;39536;52.198;9.920;2023-05-11T01:14:52;100493.75;;;14.59;100.00
13968;BME280;39536;52.198;9.920;2023-05-11T01:17:24;100487.38;;;14.65;100.00
13968;BME280;39536;52.198;9.920;2023-05-11T01:19:56;100489.00;;;14.67;100.00
13968;BME280;39536;52.198;9.920;2023-05-11T01:22:33;100497.63;;;14.69;100.00
13968;BME280;39536;52.198;9.920;2023-05-11T01:25:09;100496.88;;;14.67;100.00
13968;BME280;39536;52.198;9.920;2023-05-11T01:27:55;100500.03;;;14.74;100.00
13968;BME280;39536;52.198;9.920;2023-05-11T01:30:35;100492.31;;;14.71;100.00
13968;BME280;39536;52.198;9.920;2023-05-11T01:33:06;100500.72;;;14.77;100.00
13968;BME280;39536;52.198;9.920;2023-05-11T01:35:38;100502.19;;;14.83;100.00
13968;BME280;39536;52.198;9.920;2023-05-11T01:38:10;100500.63;;;14.79;100.00
13968;BME280;39536;52.198;9.920;2023-05-11T01:40:38;100497.91;;;14.63;100.00
13968;BME280;39536;52.198;9.920;2023-05-11T01:43:08;100499.84;;;14.60;100.00
13968;BME280;39536;52.198;9.920;2023-05-11T01:45:41;100499.53;;;14.66;100.00
13968;BME280;39536;52.198;9.920;2023-05-11T01:48:11;100500.03;;;14.74;100.00
13968;BME280;39536;52.198;9.920;2023-05-11T01:50:40;100498.00;;;14.79;100.00
13968;BME280;39536;52.198;9.920;2023-05-11T01:53:07;100496.53;;;14.73;100.00
13968;BME280;39536;52.198;9.920;2023-05-11T01:55:36;100497.88;;;14.65;100.00
13968;BME280;39536;52.198;9.920;2023-05-11T01:58:05;100498.00;;;14.62;100.00
13968;BME280;39536;52.198;9.920;2023-05-11T02:00:34;100507.56;;;14.63;100.00
13968;BME280;39536;52.198;9.920;2023-05-11T02:03:04;100508.34;;;14.65;100.00
13968;BME280;39536;52.198;9.920;2023-05-11T02:05:32;100504.09;;;14.62;100.00
13968;BME280;39536;52.198;9.920;2023-05-11T02:08:00;100503.31;;;14.60;100.00
13968;BME280;39536;52.198;9.920;2023-05-11T02:10:28;100496.69;;;14.53;100.00
13968;BME280;39536;52.198;9.920;2023-05-11T02:12:55;100504.47;;;14.54;100.00
13968;BME280;39536;52.198;9.920;2023-05-11T02:15:24;100505.50;;;14.52;100.00
13968;BME280;39536;52.198;9.920;2023-05-11T02:17:51;100503.97;;;14.46;100.00
13968;BME280;39536;52.198;9.920;2023-05-11T02:20:20;100500.44;;;14.47;100.00
13968;BME280;39536;52.198;9.920;2023-05-11T02:22:48;100500.28;;;14.50;100.00
13968;BME280;39536;52.198;9.920;2023-05-11T02:25:15;100500.44;;;14.47;100.00
13968;BME280;39536;52.198;9.920;2023-05-11T02:27:42;100503.28;;;14.43;100.00
13968;BME280;39536;52.198;9.920;2023-05-11T02:30:09;100502.34;;;14.44;100.00
13968;BME280;39536;52.198;9.920;2023-05-11T02:32:41;100507.66;;;14.42;100.00
13968;BME280;39536;52.198;9.920;2023-05-11T02:35:12;100503.91;;;14.48;100.00
13968;BME280;39536;52.198;9.920;2023-05-11T02:37:44;100507.13;;;14.36;100.00
13968;BME280;39536;52.198;9.920;2023-05-11T02:40:15;100508.44;;;14.27;100.00
13968;BME280;39536;52.198;9.920;2023-05-11T02:42:44;100508.72;;;14.21;100.00
13968;BME280;39536;52.198;9.920;2023-05-11T02:45:14;100511.25;;;14.22;100.00
13968;BME280;39536;52.198;9.920;2023-05-11T02:47:46;100508.00;;;14.17;100.00
13968;BME280;39536;52.198;9.920;2023-05-11T02:50:13;100507.16;;;14.17;100.00
13968;BME280;39536;52.198;9.920;2023-05-11T02:52:45;100502.16;;;14.12;100.00
13968;BME280;39536;52.198;9.920;2023-05-11T02:55:14;100502.84;;;14.16;100.00
13968;BME280;39536;52.198;9.920;2023-05-11T02:57:42;100506.81;;;14.24;100.00
13968;BME280;39536;52.198;9.920;2023-05-11T03:00:09;100507.66;;;14.25;100.00
13968;BME280;39536;52.198;9.920;2023-05-11T03:02:36;100507.41;;;14.29;100.00
13968;BME280;39536;52.198;9.920;2023-05-11T03:05:03;100515.28;;;14.29;100.00
13968;BME280;39536;52.198;9.920;2023-05-11T03:07:30;100513.13;;;14.38;100.00
13968;BME280;39536;52.198;9.920;2023-05-11T03:09:59;100509.63;;;14.20;100.00
13968;BME280;39536;52.198;9.920;2023-05-11T03:12:26;100513.72;;;14.25;100.00
13968;BME280;39536;52.198;9.920;2023-05-11T03:14:57;100512.19;;;14.21;100.00
13968;BME280;39536;52.198;9.920;2023-05-11T03:17:24;100510.59;;;14.00;100.00
13968;BME280;39536;52.198;9.920;2023-05-11T03:19:52;100510.50;;;14.01;100.00
13968;BME280;39536;52.198;9.920;2023-05-11T03:22:21;100520.50;;;13.93;100.00
13968;BME280;39536;52.198;9.920;2023-05-11T03:24:48;100511.56;;;13.97;100.00
13968;BME280;39536;52.198;9.920;2023-05-11T03:27:17;100517.75;;;13.96;100.00
13968;BME280;39536;52.198;9.920;2023-05-11T03:29:44;100513.56;;;13.92;100.00
13968;BME280;39536;52.198;9.920;2023-05-11T03:32:12;100519.56;;;13.94;100.00
13968;BME280;39536;52.198;9.920;2023-05-11T03:34:39;100517.66;;;13.98;100.00
13968;BME280;39536;52.198;9.920;2023-05-11T03:37:06;100520.91;;;14.03;100.00
13968;BME280;39536;52.198;9.920;2023-05-11T03:39:35;100515.41;;;14.09;100.00
13968;BME280;39536;52.198;9.920;2023-05-11T03:42:04;100514.41;;;14.12;100.00
13968;BME280;39536;52.198;9.920;2023-05-11T03:44:32;100509.22;;;14.10;100.00
13968;BME280;39536;52.198;9.920;2023-05-11T03:47:01;100505.91;;;14.06;100.00
13968;BME280;39536;52.198;9.920;2023-05-11T03:49:29;100517.94;;;14.10;100.00
13968;BME280;39536;52.198;9.920;2023-05-11T03:51:56;100506.59;;;14.10;100.00
13968;BME280;39536;52.198;9.920;2023-05-11T03:54:23;100505.34;;;14.00;100.00
13968;BME280;39536;52.198;9.920;2023-05-11T03:56:50;100504.97;;;14.07;100.00
13968;BME280;39536;52.198;9.920;2023-05-11T03:59:17;100509.88;;;14.15;100.00
13968;BME280;39536;52.198;9.920;2023-05-11T04:01:45;100505.22;;;14.20;100.00
13968;BME280;39536;52.198;9.920;2023-05-11T04:04:12;100507.50;;;14.28;100.00
13968;BME280;39536;52.198;9.920;2023-05-11T04:06:38;100505.66;;;14.30;100.00
13968;BME280;39536;52.198;9.920;2023-05-11T04:09:05;100504.34;;;14.39;100.00
13968;BME280;39536;52.198;9.920;2023-05-11T04:11:35;100504.97;;;14.44;100.00
13968;BME280;39536;52.198;9.920;2023-05-11T04:14:01;100505.81;;;14.44;100.00
13968;BME280;39536;52.198;9.920;2023-05-11T04:16:28;100504.88;;;14.45;100.00
13968;BME280;39536;52.198;9.920;2023-05-11T04:18:56;100511.75;;;14.48;100.00
13968;BME280;39536;52.198;9.920;2023-05-11T04:21:22;100510.13;;;14.45;100.00
13968;BME280;39536;52.198;9.920;2023-05-11T04:23:49;100507.50;;;14.45;100.00
13968;BME280;39536;52.198;9.920;2023-05-11T04:26:15;100506.50;;;14.48;100.00
13968;BME280;39536;52.198;9.920;2023-05-11T04:28:42;100502.19;;;14.47;100.00
13968;BME280;39536;52.198;9.920;2023-05-11T04:31:08;100509.72;;;14.54;100.00
13968;BME280;39536;52.198;9.920;2023-05-11T04:33:35;100507.72;;;14.60;100.00
13968;BME280;39536;52.198;9.920;2023-05-11T04:36:04;100513.81;;;14.60;100.00
13968;BME280;39536;52.198;9.920;2023-05-11T04:38:30;100511.44;;;14.55;100.00
13968;BME280;39536;52.198;9.920;2023-05-11T04:40:57;100503.72;;;14.52;100.00
13968;BME280;39536;52.198;9.920;2023-05-11T04:43:27;100513.38;;;14.50;100.00
13968;BME280;39536;52.198;9.920;2023-05-11T04:45:54;100515.72;;;14.57;100.00
13968;BME280;39536;52.198;9.920;2023-05-11T04:48:21;100510.34;;;14.60;100.00
13968;BME280;39536;52.198;9.920;2023-05-11T04:50:47;100514.66;;;14.61;100.00
13968;BME280;39536;52.198;9.920;2023-05-11T04:53:15;100523.44;;;14.60;100.00
13968;BME280;39536;52.198;9.920;2023-05-11T04:55:42;100521.75;;;14.59;100.00
13968;BME280;39536;52.198;9.920;2023-05-11T04:58:09;100523.59;;;14.57;100.00
13968;BME280;39536;52.198;9.920;2023-05-11T05:00:36;100522.69;;;14.39;100.00
13968;BME280;39536;52.198;9.920;2023-05-11T05:03:03;100522.97;;;14.32;100.00
13968;BME280;39536;52.198;9.920;2023-05-11T05:05:30;100520.84;;;14.41;100.00
13968;BME280;39536;52.198;9.920;2023-05-11T05:07:56;100516.31;;;14.44;100.00
13968;BME280;39536;52.198;9.920;2023-05-11T05:10:24;100527.16;;;14.55;100.00
13968;BME280;39536;52.198;9.920;2023-05-11T05:12:51;100524.69;;;14.52;100.00
13968;BME280;39536;52.198;9.920;2023-05-11T05:15:18;100521.41;;;14.47;100.00
13968;BME280;39536;52.198;9.920;2023-05-11T05:17:45;100521.41;;;14.47;100.00
13968;BME280;39536;52.198;9.920;2023-05-11T05:20:12;100527.72;;;14.43;100.00
13968;BME280;39536;52.198;9.920;2023-05-11T05:22:38;100525.16;;;14.42;100.00
13968;BME280;39536;52.198;9.920;2023-05-11T05:25:07;100529.56;;;14.41;100.00
13968;BME280;39536;52.198;9.920;2023-05-11T05:27:35;100533.97;;;14.41;100.00
13968;BME280;39536;52.198;9.920;2023-05-11T05:30:02;100537.66;;;14.37;100.00
13968;BME280;39536;52.198;9.920;2023-05-11T05:32:28;100534.03;;;14.39;100.00
13968;BME280;39536;52.198;9.920;2023-05-11T05:34:55;100535.03;;;14.37;100.00
13968;BME280;39536;52.198;9.920;2023-05-11T05:37:22;100541.66;;;14.44;100.00
13968;BME280;39536;52.198;9.920;2023-05-11T05:39:48;100540.88;;;14.42;100.00
13968;BME280;39536;52.198;9.920;2023-05-11T05:42:15;100550.31;;;14.46;100.00
13968;BME280;39536;52.198;9.920;2023-05-11T05:44:43;100546.06;;;14.43;100.00
13968;BME280;39536;52.198;9.920;2023-05-11T05:47:10;100546.56;;;14.51;100.00
13968;BME280;39536;52.198;9.920;2023-05-11T05:49:36;100551.75;;;14.53;100.00
13968;BME280;39536;52.198;9.920;2023-05-11T05:52:03;100553.38;;;14.55;100.00
13968;BME280;39536;52.198;9.920;2023-05-11T05:54:30;100547.44;;;14.52;100.00
13968;BME280;39536;52.198;9.920;2023-05-11T05:56:57;100553.69;;;14.48;100.00
13968;BME280;39536;52.198;9.920;2023-05-11T05:59:25;100548.34;;;14.51;100.00
13968;BME280;39536;52.198;9.920;2023-05-11T06:01:56;100559.50;;;14.54;100.00
13968;BME280;39536;52.198;9.920;2023-05-11T06:04:23;100558.66;;;14.54;100.00
13968;BME280;39536;52.198;9.920;2023-05-11T06:06:53;100559.16;;;14.62;100.00
13968;BME280;39536;52.198;9.920;2023-05-11T06:09:22;100564.41;;;14.62;100.00
13968;BME280;39536;52.198;9.920;2023-05-11T06:11:49;100559.78;;;14.67;100.00
13968;BME280;39536;52.198;9.920;2023-05-11T06:14:18;100562.31;;;14.69;100.00
13968;BME280;39536;52.198;9.920;2023-05-11T06:16:47;100564.63;;;14.75;100.00
13968;BME280;39536;52.198;9.920;2023-05-11T06:19:38;100563.66;;;14.77;100.00
13968;BME280;39536;52.198;9.920;2023-05-11T06:22:10;100564.50;;;14.78;100.00
13968;BME280;39536;52.198;9.920;2023-05-11T06:24:37;100557.41;;;14.80;100.00
13968;BME280;39536;52.198;9.920;2023-05-11T06:27:04;100560.78;;;14.82;100.00
13968;BME280;39536;52.198;9.920;2023-05-11T06:29:31;100558.84;;;14.86;100.00
13968;BME280;39536;52.198;9.920;2023-05-11T06:31:59;100559.72;;;14.86;100.00
13968;BME280;39536;52.198;9.920;2023-05-11T06:34:29;100562.34;;;14.86;100.00
13968;BME280;39536;52.198;9.920;2023-05-11T06:37:00;100558.00;;;14.85;100.00
13968;BME280;39536;52.198;9.920;2023-05-11T06:39:27;100565.09;;;14.66;100.00
13968;BME280;39536;52.198;9.920;2023-05-11T06:41:54;100559.50;;;14.54;100.00
13968;BME280;39536;52.198;9.920;2023-05-11T06:44:21;100560.66;;;14.49;100.00
13968;BME280;39536;52.198;9.920;2023-05-11T06:47:03;100552.38;;;14.39;100.00
13968;BME280;39536;52.198;9.920;2023-05-11T06:49:42;100560.41;;;14.36;100.00
13968;BME280;39536;52.198;9.920;2023-05-11T06:52:23;100554.84;;;14.42;100.00
13968;BME280;39536;52.198;9.920;2023-05-11T06:55:16;100560.66;;;14.49;100.00
13968;BME280;39536;52.198;9.920;2023-05-11T06:57:45;100565.34;;;14.61;100.00
13968;BME280;39536;52.198;9.920;2023-05-11T07:00:14;100563.41;;;14.65;100.00
13968;BME280;39536;52.198;9.920;2023-05-11T07:02:45;100560.31;;;14.57;100.00
13968;BME280;39536;52.198;9.920;2023-05-11T07:05:24;100564.16;;;14.67;100.00
13968;BME280;39536;52.198;9.920;2023-05-11T07:08:11;100558.75;;;14.70;100.00
13968;BME280;39536;52.198;9.920;2023-05-11T07:10:55;100562.25;;;14.70;100.00
13968;BME280;39536;52.198;9.920;2023-05-11T07:13:25;100562.97;;;14.74;100.00
13968;BME280;39536;52.198;9.920;2023-05-11T07:15:58;100554.63;;;14.83;100.00
13968;BME280;39536;52.198;9.920;2023-05-11T07:18:36;100561.31;;;14.89;100.00
13968;BME280;39536;52.198;9.920;2023-05-11T07:21:12;100566.41;;;14.92;100.00
13968;BME280;39536;52.198;9.920;2023-05-11T07:23:39;100567.88;;;14.97;100.00
13968;BME280;39536;52.198;9.920;2023-05-11T07:26:11;100560.69;;;15.01;100.00
13968;BME280;39536;52.198;9.920;2023-05-11T07:36:41;100569.66;;;14.79;100.00
13968;BME280;39536;52.198;9.920;2023-05-11T07:43:42;100567.75;;;14.83;100.00
13968;BME280;39536;52.198;9.920;2023-05-11T07:49:14;100568.72;;;14.98;100.00
13968;BME280;39536;52.198;9.920;2023-05-11T07:51:42;100569.97;;;15.08;100.00
13968;BME280;39536;52.198;9.920;2023-05-11T07:54:08;100574.53;;;15.05;100.00
13968;BME280;39536;52.198;9.920;2023-05-11T07:56:35;100578.22;;;15.18;100.00
13968;BME280;39536;52.198;9.920;2023-05-11T07:59:01;100573.72;;;15.20;100.00
13968;BME280;39536;52.198;9.920;2023-05-11T08:01:28;100571.19;;;15.18;100.00
13968;BME280;39536;52.198;9.920;2023-05-11T08:03:54;100575.22;;;15.08;100.00
13968;BME280;39536;52.198;9.920;2023-05-11T08:06:21;100576.81;;;15.11;100.00
13968;BME280;39536;52.198;9.920;2023-05-11T08:08:49;100575.28;;;15.24;100.00
13968;BME280;39536;52.198;9.920;2023-05-11T08:11:16;100577.66;;;15.29;100.00
13968;BME280;39536;52.198;9.920;2023-05-11T08:13:42;100577.50;;;15.32;100.00
13968;BME280;39536;52.198;9.920;2023-05-11T08:16:09;100578.88;;;15.39;100.00
13968;BME280;39536;52.198;9.920;2023-05-11T08:18:35;100578.91;;;15.21;100.00
13968;BME280;39536;52.198;9.920;2023-05-11T08:21:02;100576.75;;;15.12;100.00
13968;BME280;39536;52.198;9.920;2023-05-11T08:23:29;100578.22;;;14.83;100.00
13968;BME280;39536;52.198;9.920;2023-05-11T08:25:57;100577.78;;;14.92;100.00
13968;BME280;39536;52.198;9.920;2023-05-11T08:28:24;100583.56;;;14.99;100.00
13968;BME280;39536;52.198;9.920;2023-05-11T08:30:54;100582.88;;;14.95;100.00
13968;BME280;39536;52.198;9.920;2023-05-11T08:33:21;100583.31;;;15.04;100.00
13968;BME280;39536;52.198;9.920;2023-05-11T08:35:48;100575.84;;;14.96;100.00
13968;BME280;39536;52.198;9.920;2023-05-11T08:38:15;100581.22;;;14.75;100.00
13968;BME280;39536;52.198;9.920;2023-05-11T08:40:43;100578.06;;;14.69;100.00
13968;BME280;39536;52.198;9.920;2023-05-11T08:43:14;100581.16;;;14.77;100.00
13968;BME280;39536;52.198;9.920;2023-05-11T08:45:41;100584.44;;;14.44;100.00
13968;BME280;39536;52.198;9.920;2023-05-11T08:48:12;100584.59;;;14.41;100.00
13968;BME280;39536;52.198;9.920;2023-05-11T08:50:39;100581.13;;;14.41;100.00
13968;BME280;39536;52.198;9.920;2023-05-11T08:53:06;100584.69;;;14.40;100.00
13968;BME280;39536;52.198;9.920;2023-05-11T08:55:32;100589.69;;;14.44;100.00
13968;BME280;39536;52.198;9.920;2023-05-11T08:58:01;100584.13;;;14.52;100.00
13968;BME280;39536;52.198;9.920;2023-05-11T09:00:31;100583.66;;;14.42;100.00
13968;BME280;39536;52.198;9.920;2023-05-11T09:02:58;100586.59;;;14.17;100.00
13968;BME280;39536;52.198;9.920;2023-05-11T09:05:25;100587.75;;;14.12;100.00
13968;BME280;39536;52.198;9.920;2023-05-11T09:07:56;100591.53;;;14.23;100.00
13968;BME280;39536;52.198;9.920;2023-05-11T09:10:24;100580.91;;;14.26;100.00
13968;BME280;39536;52.198;9.920;2023-05-11T09:12:51;100595.03;;;14.24;100.00
13968;BME280;39536;52.198;9.920;2023-05-11T09:15:18;100584.34;;;14.09;100.00
13968;BME280;39536;52.198;9.920;2023-05-11T09:17:46;100580.44;;;14.18;100.00
13968;BME280;39536;52.198;9.920;2023-05-11T09:20:12;100586.75;;;14.33;100.00
13968;BME280;39536;52.198;9.920;2023-05-11T09:22:43;100586.00;;;14.48;100.00
13968;BME280;39536;52.198;9.920;2023-05-11T09:25:11;100585.38;;;14.43;100.00
13968;BME280;39536;52.198;9.920;2023-05-11T09:27:42;100587.34;;;14.38;100.00
13968;BME280;39536;52.198;9.920;2023-05-11T09:30:10;100583.91;;;14.19;100.00
13968;BME280;39536;52.198;9.920;2023-05-11T09:32:47;100575.66;;;14.09;100.00
13968;BME280;39536;52.198;9.920;2023-05-11T09:35:19;100578.97;;;14.13;100.00
13968;BME280;39536;52.198;9.920;2023-05-11T09:37:59;100587.66;;;14.32;100.00
13968;BME280;39536;52.198;9.920;2023-05-11T09:40:27;100586.75;;;14.52;100.00
13968;BME280;39536;52.198;9.920;2023-05-11T09:42:53;100577.81;;;14.37;100.00
13968;BME280;39536;52.198;9.920;2023-05-11T09:45:41;100580.34;;;14.39;100.00
13968;BME280;39536;52.198;9.920;2023-05-11T09:48:24;100577.81;;;14.56;100.00
13968;BME280;39536;52.198;9.920;2023-05-11T09:50:58;100579.44;;;14.59;100.00
13968;BME280;39536;52.198;9.920;2023-05-11T09:53:34;100580.91;;;14.64;100.00
13968;BME280;39536;52.198;9.920;2023-05-11T09:56:01;100582.84;;;14.78;100.00
13968;BME280;39536;52.198;9.920;2023-05-11T09:58:43;100586.34;;;14.96;100.00
13968;BME280;39536;52.198;9.920;2023-05-11T10:01:10;100577.38;;;15.00;100.00
13968;BME280;39536;52.198;9.920;2023-05-11T10:03:46;100579.94;;;15.01;100.00
13968;BME280;39536;52.198;9.920;2023-05-11T10:06:13;100576.97;;;15.25;100.00
13968;BME280;39536;52.198;9.920;2023-05-11T10:08:40;100578.03;;;15.38;100.00
13968;BME280;39536;52.198;9.920;2023-05-11T10:11:07;100574.44;;;15.23;100.00
13968;BME280;39536;52.198;9.920;2023-05-11T10:13:34;100577.06;;;15.23;100.00
13968;BME280;39536;52.198;9.920;2023-05-11T10:16:02;100575.28;;;15.24;100.00
13968;BME280;39536;52.198;9.920;2023-05-11T10:18:30;100579.13;;;15.34;100.00
13968;BME280;39536;52.198;9.920;2023-05-11T10:20:58;100574.53;;;15.55;100.00
13968;BME280;39536;52.198;9.920;2023-05-11T10:23:25;100580.06;;;15.66;100.00
13968;BME280;39536;52.198;9.920;2023-05-11T10:25:52;100570.88;;;15.75;100.00
13968;BME280;39536;52.198;9.920;2023-05-11T10:28:19;100572.06;;;15.69;100.00
13968;BME280;39536;52.198;9.920;2023-05-11T10:30:47;100575.09;;;15.44;100.00
13968;BME280;39536;52.198;9.920;2023-05-11T10:33:14;100563.13;;;15.39;100.00
13968;BME280;39536;52.198;9.920;2023-05-11T10:35:43;100565.69;;;15.23;100.00
13968;BME280;39536;52.198;9.920;2023-05-11T10:38:12;100564.78;;;15.24;100.00
13968;BME280;39536;52.198;9.920;2023-05-11T10:40:41;100563.94;;;15.23;100.00
13968;BME280;39536;52.198;9.920;2023-05-11T10:43:38;100556.63;;;15.13;100.00
13968;BME280;39536;52.198;9.920;2023-05-11T10:46:29;100566.16;;;15.14;100.00
13968;BME280;39536;52.198;9.920;2023-05-11T10:49:26;100568.16;;;15.26;100.00
13968;BME280;39536;52.198;9.920;2023-05-11T10:52:21;100572.50;;;15.27;100.00
13968;BME280;39536;52.198;9.920;2023-05-11T10:55:06;100567.94;;;15.31;100.00
13968;BME280;39536;52.198;9.920;2023-05-11T10:57:50;100565.19;;;14.99;100.00
13968;BME280;39536;52.198;9.920;2023-05-11T11:03:24;100562.78;;;14.60;100.00
13968;BME280;39536;52.198;9.920;2023-05-11T11:05:51;100554.31;;;14.72;100.00
13968;BME280;39536;52.198;9.920;2023-05-11T11:08:17;100564.56;;;14.76;100.00
13968;BME280;39536;52.198;9.920;2023-05-11T11:10:45;100567.72;;;14.66;100.00
13968;BME280;39536;52.198;9.920;2023-05-11T11:13:14;100565.44;;;14.77;100.00
13968;BME280;39536;52.198;9.920;2023-05-11T11:16:07;100571.28;;;14.82;100.00
13968;BME280;39536;52.198;9.920;2023-05-11T11:18:34;100570.97;;;14.71;100.00
13968;BME280;39536;52.198;9.920;2023-05-11T11:21:01;100576.38;;;14.68;100.00
13968;BME280;39536;52.198;9.920;2023-05-11T11:23:45;100581.22;;;14.58;100.00
13968;BME280;39536;52.198;9.920;2023-05-11T11:26:16;100573.34;;;14.58;100.00
13968;BME280;39536;52.198;9.920;2023-05-11T11:29:14;100571.03;;;14.52;100.00
13968;BME280;39536;52.198;9.920;2023-05-11T11:31:41;100573.19;;;14.61;100.00
13968;BME280;39536;52.198;9.920;2023-05-11T11:34:33;100574.19;;;14.40;100.00
13968;BME280;39536;52.198;9.920;2023-05-11T11:37:02;100568.56;;;14.30;100.00
13968;BME280;39536;52.198;9.920;2023-05-11T11:39:45;100574.19;;;14.40;100.00
13968;BME280;39536;52.198;9.920;2023-05-11T11:42:16;100575.81;;;14.42;100.00
13968;BME280;39536;52.198;9.920;2023-05-11T11:44:44;100579.44;;;14.40;100.00
13968;BME280;39536;52.198;9.920;2023-05-11T11:47:12;100572.66;;;14.17;100.00
13968;BME280;39536;52.198;9.920;2023-05-11T11:49:39;100573.63;;;14.14;100.00
13968;BME280;39536;52.198;9.920;2023-05-11T11:52:10;100579.09;;;14.28;100.00
13968;BME280;39536;52.198;9.920;2023-05-11T11:54:37;100580.38;;;14.20;100.00
13968;BME280;39536;52.198;9.920;2023-05-11T11:57:04;100583.19;;;14.34;100.00
13968;BME280;39536;52.198;9.920;2023-05-11T11:59:44;100576.28;;;14.50;100.00
13968;BME280;39536;52.198;9.920;2023-05-11T12:02:14;100572.78;;;14.51;100.00
13968;BME280;39536;52.198;9.920;2023-05-11T12:04:55;100582.06;;;14.59;100.00
13968;BME280;39536;52.198;9.920;2023-05-11T12:07:23;100582.97;;;14.58;100.00
13968;BME280;39536;52.198;9.920;2023-05-11T12:09:51;100574.53;;;14.51;100.00
13968;BME280;39536;52.198;9.920;2023-05-11T12:12:18;100566.78;;;14.48;100.00
13968;BME280;39536;52.198;9.920;2023-05-11T12:14:46;100572.25;;;14.62;100.00
13968;BME280;39536;52.198;9.920;2023-05-11T12:17:23;100571.56;;;14.59;100.00
13968;BME280;39536;52.198;9.920;2023-05-11T12:19:50;100573.59;;;14.71;100.00
13968;BME280;39536;52.198;9.920;2023-05-11T12:22:21;100571.50;;;14.77;100.00
13968;BME280;39536;52.198;9.920;2023-05-11T12:24:48;100574.34;;;14.73;100.00
13968;BME280;39536;52.198;9.920;2023-05-11T12:27:15;100568.41;;;14.69;100.00
13968;BME280;39536;52.198;9.920;2023-05-11T12:29:48;100567.41;;;14.72;100.00
13968;BME280;39536;52.198;9.920;2023-05-11T12:32:24;100569.09;;;14.73;100.00
13968;BME280;39536;52.198;9.920;2023-05-11T12:34:57;100567.81;;;14.82;100.00
13968;BME280;39536;52.198;9.920;2023-05-11T12:37:23;100563.03;;;14.90;100.00
13968;BME280;39536;52.198;9.920;2023-05-11T12:39:53;100560.56;;;14.87;100.00
13968;BME280;39536;52.198;9.920;2023-05-11T12:42:19;100564.41;;;14.97;100.00
13968;BME280;39536;52.198;9.920;2023-05-11T12:44:48;100564.09;;;14.86;100.00
13968;BME280;39536;52.198;9.920;2023-05-11T12:47:15;100556.50;;;14.98;100.00
13968;BME280;39536;52.198;9.920;2023-05-11T12:49:42;100555.31;;;15.04;100.00
13968;BME280;39536;52.198;9.920;2023-05-11T12:52:09;100560.25;;;15.10;100.00
13968;BME280;39536;52.198;9.920;2023-05-11T12:54:37;100559.56;;;15.24;100.00
13968;BME280;39536;52.198;9.920;2023-05-11T12:57:05;100562.22;;;15.40;100.00
13968;BME280;39536;52.198;9.920;2023-05-11T12:59:34;100557.56;;;15.45;100.00
13968;BME280;39536;52.198;9.920;2023-05-11T13:02:12;100549.63;;;15.46;100.00
13968;BME280;39536;52.198;9.920;2023-05-11T13:04:40;100548.00;;;15.44;100.00
13968;BME280;39536;52.198;9.920;2023-05-11T13:07:08;100546.50;;;15.22;100.00
13968;BME280;39536;52.198;9.920;2023-05-11T13:09:35;100549.75;;;15.28;100.00
13968;BME280;39536;52.198;9.920;2023-05-11T13:12:15;100544.53;;;15.43;100.00